Time;durP1;ratioP1;P1;durP2;ratioP2;P2;SDS_P1;SDS_P2;PMS_P1;PMS_P2;Temp;Humidity;BMP_temperature;BMP_pressure;BME280_temperature;BME280_humidity;BME280_pressure;Samples;Min_cycle;Max_cycle;Signal;HPM_P1;HPM_P2
2023/08/07 00:02:10;;;;;;;2.40;0.73;;;12.50;99.90;;;;;;5019720;28;20394;-61
2023/08/07 00:04:36;;;;;;;0.93;0.20;;;12.40;99.90;;;;;;5017981;28;20121;-60
2023/08/07 00:07:02;;;;;;;0.20;0.20;;;12.40;99.90;;;;;;5018962;28;20469;-60
2023/08/07 00:09:27;;;;;;;0.30;0.30;;;12.40;99.90;;;;;;5018562;28;20436;-61
2023/08/07 00:11:53;;;;;;;1.50;0.28;;;12.40;99.90;;;;;;5016821;28;20021;-60
2023/08/07 00:14:19;;;;;;;0.52;0.22;;;12.40;99.90;;;;;;5016293;28;20057;-61
2023/08/07 00:16:44;;;;;;;0.20;0.20;;;12.40;99.90;;;;;;5017095;28;20030;-62
2023/08/07 00:19:11;;;;;;;0.80;0.20;;;12.40;99.90;;;;;;5017693;28;20033;-59
2023/08/07 00:21:37;;;;;;;0.30;0.30;;;12.40;99.90;;;;;;5018091;28;20068;-58
2023/08/07 00:24:03;;;;;;;0.73;0.20;;;12.40;99.90;;;;;;5016558;28;20045;-61
2023/08/07 00:26:29;;;;;;;1.08;0.30;;;12.40;99.90;;;;;;5019097;28;20485;-59
2023/08/07 00:28:55;;;;;;;0.20;0.20;;;12.40;99.90;;;;;;5019971;28;20034;-61
2023/08/07 00:31:21;;;;;;;0.88;0.20;;;12.40;99.90;;;;;;5018103;28;20053;-61
2023/08/07 00:33:51;;;;;;;0.47;0.22;;;12.40;99.90;;;;;;5018440;28;20738;-62
2023/08/07 00:36:17;;;;;;;4.03;0.35;;;12.40;99.90;;;;;;5016015;28;20022;-62
2023/08/07 00:38:42;;;;;;;0.98;0.20;;;12.40;99.90;;;;;;5023701;28;20116;-59
2023/08/07 00:41:09;;;;;;;0.43;0.22;;;12.40;99.90;;;;;;5013918;28;20025;-59
2023/08/07 00:43:35;;;;;;;0.40;0.30;;;12.40;99.90;;;;;;5010494;28;20026;-59
2023/08/07 00:46:02;;;;;;;1.27;0.20;;;12.40;99.90;;;;;;5016409;28;20415;-59
2023/08/07 00:48:29;;;;;;;0.43;0.25;;;12.40;99.90;;;;;;5015382;28;20034;-60
2023/08/07 00:50:55;;;;;;;1.63;0.30;;;12.40;99.90;;;;;;5017268;28;20402;-59
2023/08/07 00:53:22;;;;;;;3.03;0.20;;;12.40;99.90;;;;;;5018408;28;20426;-63
2023/08/07 00:55:48;;;;;;;3.55;0.30;;;12.40;99.90;;;;;;5016154;28;20029;-59
2023/08/07 00:58:14;;;;;;;1.27;0.30;;;12.40;99.90;;;;;;5017387;28;20040;-62
2023/08/07 01:00:41;;;;;;;0.20;0.20;;;12.40;99.90;;;;;;5016346;28;20044;-59
2023/08/07 01:03:07;;;;;;;2.03;0.30;;;12.40;99.90;;;;;;5015956;28;20053;-62
2023/08/07 01:05:34;;;;;;;1.73;0.30;;;12.40;99.90;;;;;;5017105;28;20469;-61
2023/08/07 01:08:00;;;;;;;0.95;0.30;;;12.40;99.90;;;;;;5023727;28;20034;-60
2023/08/07 01:10:52;;;;;;;0.98;0.20;;;12.50;99.90;;;;;;5016269;28;20023;-62
2023/08/07 01:13:49;;;;;;;0.30;0.28;;;12.50;99.90;;;;;;5018951;28;20058;-59
2023/08/07 01:16:21;;;;;;;1.35;0.30;;;12.50;99.90;;;;;;5016720;28;20079;-60
2023/08/07 01:18:49;;;;;;;1.13;0.40;;;12.50;99.90;;;;;;5019063;28;20038;-60
2023/08/07 01:21:21;;;;;;;1.05;0.30;;;12.50;99.90;;;;;;5018019;28;20041;-62
2023/08/07 01:23:48;;;;;;;0.57;0.35;;;12.50;99.90;;;;;;5016846;28;20018;-59
2023/08/07 01:26:15;;;;;;;1.23;0.30;;;12.50;99.90;;;;;;5018316;28;20060;-61
2023/08/07 01:28:50;;;;;;;1.85;0.40;;;12.50;99.90;;;;;;5020074;28;20036;-62
2023/08/07 01:31:19;;;;;;;0.50;0.30;;;12.50;99.90;;;;;;5015256;28;20056;-62
2023/08/07 01:34:04;;;;;;;1.63;0.40;;;12.50;99.90;;;;;;5015964;28;20092;-61
2023/08/07 01:36:30;;;;;;;1.13;0.30;;;12.50;99.90;;;;;;5017992;28;20446;-61
2023/08/07 01:38:59;;;;;;;5.80;0.30;;;12.50;99.90;;;;;;5018447;28;20036;-60
2023/08/07 01:41:25;;;;;;;2.33;0.30;;;12.50;99.90;;;;;;5020214;28;20021;-61
2023/08/07 01:43:51;;;;;;;4.03;0.30;;;12.60;99.90;;;;;;5016852;28;20132;-61
2023/08/07 01:46:18;;;;;;;0.38;0.15;;;12.50;99.90;;;;;;5017570;28;20429;-61
2023/08/07 01:48:43;;;;;;;1.10;0.40;;;12.50;99.90;;;;;;5008388;28;20034;-58
2023/08/07 01:51:09;;;;;;;0.20;0.20;;;12.60;99.90;;;;;;5014681;28;20042;-60
2023/08/07 01:53:34;;;;;;;0.20;0.20;;;12.50;99.90;;;;;;5013750;28;20583;-59
2023/08/07 01:56:00;;;;;;;1.23;0.20;;;12.50;99.90;;;;;;5011575;28;20049;-58
2023/08/07 01:58:26;;;;;;;2.30;0.40;;;12.50;99.90;;;;;;5016411;28;20103;-61
2023/08/07 02:00:52;;;;;;;3.25;0.35;;;12.50;99.90;;;;;;5015660;28;20041;-61
2023/08/07 02:03:18;;;;;;;0.30;0.30;;;12.50;99.90;;;;;;5016665;28;20080;-62
2023/08/07 02:05:47;;;;;;;0.75;0.30;;;12.50;99.90;;;;;;5016783;28;20030;-61
2023/08/07 02:08:14;;;;;;;0.45;0.40;;;12.50;99.90;;;;;;5018267;28;20029;-60
2023/08/07 02:10:40;;;;;;;4.68;0.47;;;12.50;99.90;;;;;;5018632;28;20037;-58
2023/08/07 02:13:05;;;;;;;0.40;0.40;;;12.50;99.90;;;;;;5015414;28;20500;-62
2023/08/07 02:15:31;;;;;;;0.80;0.40;;;12.50;99.90;;;;;;5016893;28;20087;-59
2023/08/07 02:17:56;;;;;;;1.42;0.40;;;12.40;99.90;;;;;;5018257;28;20599;-61
2023/08/07 02:20:22;;;;;;;5.45;0.50;;;12.40;99.90;;;;;;5017650;28;20034;-60
2023/08/07 02:22:48;;;;;;;1.42;0.60;;;12.40;99.90;;;;;;5019735;28;20117;-62
2023/08/07 02:25:13;;;;;;;3.65;0.80;;;12.40;99.90;;;;;;5021702;28;20061;-63
2023/08/07 02:27:39;;;;;;;1.70;0.88;;;12.40;99.90;;;;;;5018384;28;20050;-60
2023/08/07 02:30:06;;;;;;;3.05;0.80;;;12.30;99.90;;;;;;5019111;28;20084;-59
2023/08/07 02:32:31;;;;;;;1.38;0.75;;;12.30;99.90;;;;;;5019364;28;20080;-58
2023/08/07 02:34:57;;;;;;;2.35;0.80;;;12.30;99.90;;;;;;5020062;28;20042;-59
2023/08/07 02:37:23;;;;;;;2.35;0.65;;;12.30;99.90;;;;;;5022262;28;20037;-59
2023/08/07 02:39:49;;;;;;;3.13;0.77;;;12.30;99.90;;;;;;5018516;28;20065;-62
2023/08/07 02:42:14;;;;;;;1.35;0.70;;;12.30;99.90;;;;;;5017503;28;20046;-60
2023/08/07 02:44:40;;;;;;;1.38;0.70;;;12.30;99.90;;;;;;5018542;28;20368;-61
2023/08/07 02:47:06;;;;;;;1.85;0.70;;;12.30;99.90;;;;;;5017310;28;20095;-59
2023/08/07 02:49:32;;;;;;;11.00;0.80;;;12.20;99.90;;;;;;5020671;28;20033;-59
2023/08/07 02:51:57;;;;;;;1.23;0.60;;;12.20;99.90;;;;;;5020161;28;20113;-59
2023/08/07 02:54:23;;;;;;;0.82;0.68;;;12.20;99.90;;;;;;5021146;28;20051;-62
2023/08/07 02:56:49;;;;;;;2.47;0.60;;;12.20;99.90;;;;;;5018589;28;20047;-62
2023/08/07 02:59:15;;;;;;;1.17;0.50;;;12.20;99.90;;;;;;5025290;28;20021;-60
2023/08/07 03:01:42;;;;;;;1.10;0.57;;;12.20;99.90;;;;;;5019984;28;20113;-61
2023/08/07 03:04:07;;;;;;;1.35;0.50;;;12.10;99.90;;;;;;5019917;28;20061;-59
2023/08/07 03:06:33;;;;;;;0.65;0.50;;;12.10;99.90;;;;;;5017810;28;20461;-60
2023/08/07 03:08:59;;;;;;;0.50;0.40;;;12.10;99.90;;;;;;5020013;28;20040;-62
2023/08/07 03:11:24;;;;;;;0.40;0.40;;;12.10;99.90;;;;;;5017426;28;20029;-59
2023/08/07 03:13:50;;;;;;;0.32;0.30;;;12.10;99.90;;;;;;5018461;28;20502;-59
2023/08/07 03:16:16;;;;;;;1.35;0.60;;;12.10;99.90;;;;;;5018602;28;20041;-63
2023/08/07 03:18:41;;;;;;;1.45;0.43;;;12.00;99.90;;;;;;5016775;28;20030;-59
2023/08/07 03:21:07;;;;;;;0.60;0.60;;;12.00;99.90;;;;;;5019188;28;20038;-63
2023/08/07 03:23:32;;;;;;;3.03;0.60;;;12.00;99.90;;;;;;5017837;28;20053;-61
2023/08/07 03:26:06;;;;;;;0.70;0.60;;;12.00;99.90;;;;;;5017076;28;20054;-59
2023/08/07 03:28:33;;;;;;;1.88;0.60;;;12.00;99.90;;;;;;5017310;28;20121;-60
2023/08/07 03:30:58;;;;;;;2.47;0.80;;;12.00;99.90;;;;;;5017626;28;20038;-58
2023/08/07 03:33:24;;;;;;;0.60;0.60;;;12.00;99.90;;;;;;5019482;28;20033;-60
2023/08/07 03:35:49;;;;;;;0.60;0.60;;;12.00;99.90;;;;;;5019948;28;20022;-60
2023/08/07 03:38:15;;;;;;;2.13;0.75;;;12.00;99.90;;;;;;5024001;28;20071;-60
2023/08/07 03:40:41;;;;;;;0.82;0.70;;;12.00;99.90;;;;;;5018587;28;20544;-62
2023/08/07 03:43:06;;;;;;;1.88;0.85;;;12.00;99.90;;;;;;5018452;28;20065;-59
2023/08/07 03:45:32;;;;;;;4.97;1.70;;;11.90;99.90;;;;;;5019215;28;20616;-61
2023/08/07 03:47:57;;;;;;;0.70;0.70;;;11.90;99.90;;;;;;5019529;28;20038;-59
2023/08/07 03:50:23;;;;;;;2.90;0.80;;;11.90;99.90;;;;;;5017881;28;20022;-62
2023/08/07 03:52:49;;;;;;;6.93;1.00;;;11.90;99.90;;;;;;5020959;28;20041;-59
2023/08/07 03:55:14;;;;;;;1.20;0.90;;;11.90;99.90;;;;;;5018476;28;20034;-63
2023/08/07 03:57:40;;;;;;;11.13;0.90;;;11.90;99.90;;;;;;5020594;28;20034;-60
2023/08/07 04:00:07;;;;;;;1.05;0.82;;;11.90;99.90;;;;;;5016529;28;20113;-60
2023/08/07 04:02:32;;;;;;;0.82;0.80;;;11.90;99.90;;;;;;5017088;28;20482;-60
2023/08/07 04:04:58;;;;;;;1.00;0.90;;;11.90;99.90;;;;;;5018608;28;20033;-63
2023/08/07 04:07:23;;;;;;;0.95;0.70;;;11.90;99.90;;;;;;5017116;28;20021;-60
2023/08/07 04:09:49;;;;;;;0.60;0.60;;;11.90;99.90;;;;;;5016036;28;20484;-60
2023/08/07 04:12:15;;;;;;;1.45;0.75;;;11.90;99.90;;;;;;5017718;28;20046;-61
2023/08/07 04:14:40;;;;;;;3.53;0.90;;;11.90;99.90;;;;;;5017535;28;20057;-63
2023/08/07 04:17:06;;;;;;;2.30;0.80;;;11.90;99.90;;;;;;5016580;28;20041;-59
2023/08/07 04:19:32;;;;;;;3.28;0.70;;;11.90;99.90;;;;;;5016834;28;20065;-58
2023/08/07 04:21:58;;;;;;;0.82;0.73;;;11.90;99.90;;;;;;5016060;28;20525;-60
2023/08/07 04:24:23;;;;;;;7.07;0.77;;;11.90;99.90;;;;;;5015703;28;20104;-61
2023/08/07 04:26:49;;;;;;;4.50;0.75;;;11.90;99.90;;;;;;5018145;28;20057;-61
2023/08/07 04:29:16;;;;;;;0.85;0.60;;;11.90;99.90;;;;;;5016198;28;20050;-62
2023/08/07 04:31:41;;;;;;;1.77;0.80;;;11.90;99.90;;;;;;5017768;28;20080;-59
2023/08/07 04:34:07;;;;;;;0.60;0.60;;;11.90;99.90;;;;;;5020523;28;20069;-62
2023/08/07 04:36:33;;;;;;;2.20;0.80;;;11.90;99.90;;;;;;5017697;28;20037;-58
2023/08/07 04:38:59;;;;;;;2.08;0.70;;;11.90;99.90;;;;;;5018018;28;20030;-59
2023/08/07 04:41:24;;;;;;;3.83;0.70;;;11.90;99.90;;;;;;5018476;28;20573;-57
2023/08/07 04:43:50;;;;;;;0.65;0.65;;;11.90;99.90;;;;;;5017694;28;20037;-61
2023/08/07 04:46:15;;;;;;;0.60;0.60;;;11.90;99.90;;;;;;5014827;28;20124;-60
2023/08/07 04:48:41;;;;;;;1.27;0.60;;;11.90;99.90;;;;;;5013297;28;20038;-58
2023/08/07 04:51:07;;;;;;;2.90;0.50;;;11.90;99.90;;;;;;5014797;28;20103;-59
2023/08/07 04:53:32;;;;;;;1.30;0.55;;;11.90;99.90;;;;;;5015262;28;20053;-57
2023/08/07 04:56:02;;;;;;;2.90;0.73;;;11.90;99.90;;;;;;5012706;28;20068;-57
2023/08/07 04:58:27;;;;;;;0.68;0.60;;;11.90;99.90;;;;;;5016226;28;20030;-58
2023/08/07 05:00:57;;;;;;;1.70;0.80;;;11.90;99.90;;;;;;5015842;28;20391;-60
2023/08/07 05:03:23;;;;;;;1.90;0.70;;;11.90;99.90;;;;;;5016691;28;20101;-62
2023/08/07 05:05:48;;;;;;;1.63;0.70;;;11.90;99.90;;;;;;5016943;28;20120;-60
2023/08/07 05:08:14;;;;;;;0.50;0.50;;;11.90;99.90;;;;;;5017542;28;20097;-59
2023/08/07 05:10:40;;;;;;;0.50;0.50;;;11.80;99.90;;;;;;5017269;28;20029;-58
2023/08/07 05:13:05;;;;;;;1.17;0.50;;;11.90;99.90;;;;;;5018610;28;20041;-59
2023/08/07 05:15:31;;;;;;;2.50;0.52;;;11.90;99.90;;;;;;5013983;28;20458;-58
2023/08/07 05:17:57;;;;;;;2.60;0.65;;;11.80;99.90;;;;;;5017562;28;20018;-61
2023/08/07 05:20:23;;;;;;;1.05;0.65;;;11.80;99.90;;;;;;5018536;28;20021;-61
2023/08/07 05:22:49;;;;;;;0.60;0.50;;;11.80;99.90;;;;;;5016467;28;20030;-59
2023/08/07 05:25:15;;;;;;;4.90;0.70;;;11.80;99.90;;;;;;5018018;28;20502;-60
2023/08/07 05:27:42;;;;;;;2.55;0.50;;;11.80;99.90;;;;;;5016203;28;20030;-58
2023/08/07 05:30:08;;;;;;;1.45;1.05;;;11.80;99.90;;;;;;5016822;28;20488;-62
2023/08/07 05:32:37;;;;;;;2.00;0.50;;;11.80;99.90;;;;;;5017112;28;20032;-58
2023/08/07 05:35:04;;;;;;;1.48;0.60;;;11.80;99.90;;;;;;5016269;28;20052;-61
2023/08/07 05:37:31;;;;;;;0.63;0.45;;;11.80;99.90;;;;;;5017071;28;20026;-57
2023/08/07 05:39:57;;;;;;;10.02;0.60;;;11.80;99.90;;;;;;5017212;28;20451;-60
2023/08/07 05:42:23;;;;;;;3.20;0.50;;;11.90;99.90;;;;;;5018494;28;20040;-61
2023/08/07 05:44:48;;;;;;;0.40;0.40;;;11.90;99.90;;;;;;5017182;28;20030;-60
2023/08/07 05:47:14;;;;;;;0.43;0.35;;;11.90;99.90;;;;;;5015654;28;20025;-59
2023/08/07 05:49:40;;;;;;;0.85;0.40;;;11.90;99.90;;;;;;5018731;28;20041;-59
2023/08/07 05:52:06;;;;;;;0.30;0.20;;;11.90;99.90;;;;;;5015694;28;20072;-60
2023/08/07 05:54:31;;;;;;;0.65;0.35;;;12.00;99.90;;;;;;5018704;28;20034;-59
2023/08/07 05:56:57;;;;;;;0.93;0.40;;;12.00;99.90;;;;;;5020381;28;20055;-61
2023/08/07 05:59:23;;;;;;;0.40;0.35;;;12.00;99.90;;;;;;5022015;28;20024;-59
2023/08/07 06:01:48;;;;;;;4.78;0.95;;;12.00;99.90;;;;;;5020043;28;20514;-61
2023/08/07 06:04:14;;;;;;;0.50;0.50;;;12.00;99.90;;;;;;5017226;28;20159;-60
2023/08/07 06:06:43;;;;;;;3.10;0.40;;;12.00;99.90;;;;;;5017838;28;20046;-59
2023/08/07 06:09:08;;;;;;;0.68;0.40;;;12.00;99.90;;;;;;5027594;28;20029;-57
2023/08/07 06:11:34;;;;;;;0.20;0.20;;;12.00;99.90;;;;;;5022041;28;20036;-60
2023/08/07 06:14:00;;;;;;;0.45;0.45;;;12.00;99.90;;;;;;5019449;28;20442;-60
2023/08/07 06:16:27;;;;;;;0.35;0.30;;;12.00;99.90;;;;;;5020858;28;20030;-61
2023/08/07 06:18:53;;;;;;;1.10;0.38;;;12.00;99.90;;;;;;5018638;28;20044;-60
2023/08/07 06:21:19;;;;;;;2.50;0.47;;;12.00;99.90;;;;;;5019807;28;20148;-61
2023/08/07 06:23:45;;;;;;;1.15;0.77;;;12.00;99.90;;;;;;5022034;28;20068;-60
2023/08/07 06:26:11;;;;;;;2.40;0.85;;;12.00;99.90;;;;;;5020119;28;20083;-59
2023/08/07 06:28:37;;;;;;;0.70;0.60;;;12.10;99.90;;;;;;5020847;28;20034;-59
2023/08/07 06:31:07;;;;;;;1.15;0.40;;;12.00;99.90;;;;;;5020926;28;20057;-60
2023/08/07 06:33:34;;;;;;;0.63;0.30;;;12.00;99.90;;;;;;5020869;28;20036;-59
2023/08/07 06:36:00;;;;;;;0.80;0.80;;;12.00;99.90;;;;;;5019183;28;20034;-60
2023/08/07 06:38:26;;;;;;;1.10;0.60;;;12.00;99.90;;;;;;5021951;28;20428;-57
2023/08/07 06:40:51;;;;;;;0.57;0.57;;;12.00;99.90;;;;;;5021479;28;20034;-61
2023/08/07 06:43:17;;;;;;;0.77;0.77;;;12.00;99.90;;;;;;5019172;28;20041;-59
2023/08/07 06:45:43;;;;;;;3.38;0.80;;;12.00;99.90;;;;;;5019061;28;20038;-60
2023/08/07 06:48:09;;;;;;;2.65;2.47;;;12.00;99.90;;;;;;5018891;28;20107;-59
2023/08/07 06:50:35;;;;;;;1.02;0.60;;;12.00;99.90;;;;;;5020284;28;20497;-59
2023/08/07 06:53:00;;;;;;;1.73;0.47;;;12.10;99.90;;;;;;5018628;28;20044;-59
2023/08/07 06:55:26;;;;;;;0.85;0.32;;;12.10;99.90;;;;;;5019556;28;20514;-58
2023/08/07 06:57:52;;;;;;;0.60;0.60;;;12.20;99.90;;;;;;5019520;28;20021;-60
2023/08/07 07:00:17;;;;;;;0.38;0.38;;;12.20;99.90;;;;;;5017047;28;20153;-60
2023/08/07 07:02:43;;;;;;;0.70;0.50;;;12.20;99.90;;;;;;5017847;28;20040;-59
2023/08/07 07:05:08;;;;;;;4.28;0.70;;;12.20;99.90;;;;;;5021996;28;20583;-58
2023/08/07 07:07:35;;;;;;;0.90;0.40;;;12.20;99.90;;;;;;5016940;28;20026;-57
2023/08/07 07:10:01;;;;;;;0.35;0.30;;;12.30;99.90;;;;;;5019457;28;20042;-61
2023/08/07 07:12:27;;;;;;;1.08;0.70;;;12.30;99.90;;;;;;5018353;28;20683;-58
2023/08/07 07:14:53;;;;;;;1.13;0.60;;;12.20;99.90;;;;;;5017777;28;20018;-58
2023/08/07 07:17:18;;;;;;;0.90;0.50;;;12.30;99.90;;;;;;5017579;28;20029;-60
2023/08/07 07:19:44;;;;;;;0.63;0.50;;;12.40;99.90;;;;;;5017025;28;20034;-60
2023/08/07 07:22:10;;;;;;;0.73;0.43;;;12.50;99.90;;;;;;5015504;28;20026;-59
2023/08/07 07:24:35;;;;;;;3.75;0.60;;;12.50;99.90;;;;;;5020110;28;20030;-59
2023/08/07 07:27:01;;;;;;;0.65;0.50;;;12.50;99.90;;;;;;5020197;28;20483;-61
2023/08/07 07:29:27;;;;;;;0.77;0.50;;;12.60;99.90;;;;;;5019103;28;20433;-57
2023/08/07 07:31:54;;;;;;;0.70;0.50;;;12.60;99.90;;;;;;5017568;28;20030;-61
2023/08/07 07:34:20;;;;;;;1.05;0.47;;;12.60;99.90;;;;;;5018797;28;20406;-59
2023/08/07 07:36:46;;;;;;;0.43;0.40;;;12.70;99.90;;;;;;5023164;28;20033;-63
2023/08/07 07:39:11;;;;;;;4.63;0.52;;;12.70;99.90;;;;;;5024281;28;20052;-60
2023/08/07 07:41:37;;;;;;;0.40;0.40;;;12.70;99.90;;;;;;5019448;28;20073;-60
2023/08/07 07:44:03;;;;;;;7.68;1.27;;;12.70;99.90;;;;;;5019885;28;20557;-59
2023/08/07 07:46:29;;;;;;;1.67;0.60;;;12.60;99.90;;;;;;5016674;28;20033;-59
2023/08/07 07:48:55;;;;;;;0.90;0.40;;;12.60;99.90;;;;;;5019666;28;20094;-61
2023/08/07 07:51:21;;;;;;;1.17;0.40;;;12.60;99.90;;;;;;5021292;28;20044;-61
2023/08/07 07:53:47;;;;;;;1.05;0.50;;;12.60;99.90;;;;;;5015795;28;20029;-59
2023/08/07 07:56:13;;;;;;;0.63;0.40;;;12.60;99.90;;;;;;5018464;28;20642;-59
2023/08/07 07:58:38;;;;;;;2.05;0.50;;;12.60;99.90;;;;;;5018765;28;20172;-60
2023/08/07 08:01:04;;;;;;;2.45;0.70;;;12.60;99.90;;;;;;5019422;28;20083;-60
2023/08/07 08:03:29;;;;;;;1.90;0.60;;;12.60;99.90;;;;;;5018868;28;20563;-61
2023/08/07 08:05:56;;;;;;;2.22;0.60;;;12.50;99.90;;;;;;5016761;28;20392;-59
2023/08/07 08:08:21;;;;;;;1.02;0.52;;;12.50;99.90;;;;;;5017551;28;20537;-62
2023/08/07 08:10:47;;;;;;;0.82;0.60;;;12.60;99.90;;;;;;5015865;28;20116;-60
2023/08/07 08:13:14;;;;;;;1.02;0.65;;;12.60;99.90;;;;;;5014515;28;20030;-60
2023/08/07 08:15:39;;;;;;;0.80;0.70;;;12.70;99.90;;;;;;5017451;28;20510;-59
2023/08/07 08:18:05;;;;;;;1.45;0.60;;;12.80;99.90;;;;;;5017025;28;20036;-59
2023/08/07 08:20:32;;;;;;;2.53;0.90;;;12.80;99.90;;;;;;5017364;28;20045;-58
2023/08/07 08:22:58;;;;;;;3.92;0.60;;;13.00;99.90;;;;;;5015590;28;20354;-59
2023/08/07 08:25:23;;;;;;;0.88;0.60;;;13.00;99.90;;;;;;5017217;28;20180;-60
2023/08/07 08:27:50;;;;;;;0.68;0.57;;;13.00;99.90;;;;;;5017673;28;20022;-62
2023/08/07 08:30:16;;;;;;;0.85;0.57;;;13.00;99.90;;;;;;5020172;28;20029;-60
2023/08/07 08:32:43;;;;;;;2.65;0.98;;;12.90;99.90;;;;;;5021397;28;20505;-61
2023/08/07 08:35:09;;;;;;;1.15;0.75;;;12.90;99.90;;;;;;5017738;28;20714;-59
2023/08/07 08:37:35;;;;;;;0.98;0.63;;;12.90;99.90;;;;;;5016477;28;20111;-59
2023/08/07 08:40:01;;;;;;;1.45;0.70;;;12.90;99.90;;;;;;5014071;28;20085;-62
2023/08/07 08:42:27;;;;;;;5.05;2.25;;;13.00;99.90;;;;;;5016284;28;20038;-61
2023/08/07 08:44:53;;;;;;;0.95;0.75;;;13.00;99.90;;;;;;5014600;28;20026;-62
2023/08/07 08:47:22;;;;;;;1.50;1.05;;;13.00;99.90;;;;;;5019349;28;20064;-63
2023/08/07 08:49:50;;;;;;;1.35;0.90;;;13.10;99.90;;;;;;5017160;28;20029;-62
2023/08/07 08:52:17;;;;;;;1.52;1.02;;;13.10;99.90;;;;;;5016674;28;20537;-61
2023/08/07 08:54:46;;;;;;;8.40;1.20;;;13.10;99.90;;;;;;5017421;28;20034;-61
2023/08/07 08:57:13;;;;;;;1.23;1.00;;;13.20;99.90;;;;;;5017461;28;20057;-60
2023/08/07 08:59:40;;;;;;;1.42;1.20;;;13.20;99.90;;;;;;5019634;28;20026;-62
2023/08/07 09:02:07;;;;;;;1.70;1.60;;;13.20;99.90;;;;;;5018372;28;20811;-59
2023/08/07 09:04:32;;;;;;;3.45;2.00;;;13.20;99.90;;;;;;5017077;28;20030;-58
2023/08/07 09:06:59;;;;;;;2.25;2.00;;;13.20;99.90;;;;;;5017214;28;20425;-62
2023/08/07 09:09:24;;;;;;;2.80;1.73;;;13.20;99.90;;;;;;5016779;28;20034;-60
2023/08/07 09:11:51;;;;;;;2.10;1.83;;;13.30;99.90;;;;;;5016566;28;20022;-63
2023/08/07 09:14:22;;;;;;;6.03;2.20;;;13.30;99.90;;;;;;5019793;28;20071;-62
2023/08/07 09:16:51;;;;;;;4.10;2.00;;;13.30;99.90;;;;;;5018037;28;20045;-60
2023/08/07 09:19:17;;;;;;;2.95;1.65;;;13.30;99.90;;;;;;5016154;28;20520;-61
2023/08/07 09:21:42;;;;;;;2.90;2.15;;;13.30;99.90;;;;;;5010843;28;20042;-61
2023/08/07 09:24:09;;;;;;;2.00;1.80;;;13.30;99.90;;;;;;5017864;28;20037;-62
2023/08/07 09:26:35;;;;;;;3.67;2.10;;;13.30;99.90;;;;;;5022739;28;20401;-61
2023/08/07 09:29:02;;;;;;;3.03;2.10;;;13.30;99.90;;;;;;5022732;28;20030;-61
2023/08/07 09:31:30;;;;;;;2.83;1.55;;;13.30;99.90;;;;;;5019168;28;20029;-61
2023/08/07 09:34:02;;;;;;;4.65;1.95;;;13.50;99.90;;;;;;5021432;28;20441;-60
2023/08/07 09:36:30;;;;;;;2.58;1.50;;;13.60;99.90;;;;;;5019271;28;20029;-60
2023/08/07 09:38:55;;;;;;;4.47;1.75;;;13.80;99.90;;;;;;5021151;28;20049;-63
2023/08/07 09:41:21;;;;;;;3.55;1.58;;;13.90;99.90;;;;;;5022712;28;20048;-62
2023/08/07 09:43:47;;;;;;;1.83;1.52;;;13.90;99.90;;;;;;5020966;28;20516;-60
2023/08/07 09:46:13;;;;;;;2.15;1.70;;;13.80;99.90;;;;;;5017859;28;20029;-60
2023/08/07 09:48:42;;;;;;;2.80;1.85;;;13.70;99.90;;;;;;5018971;28;20569;-59
2023/08/07 09:51:09;;;;;;;2.08;1.73;;;13.70;99.90;;;;;;5019897;28;20030;-62
2023/08/07 09:53:34;;;;;;;4.57;2.38;;;13.60;99.90;;;;;;5021634;28;20113;-60
2023/08/07 09:56:01;;;;;;;2.28;2.08;;;13.50;99.90;;;;;;5022291;28;20136;-59
2023/08/07 09:58:27;;;;;;;2.60;1.80;;;13.40;99.90;;;;;;5019009;28;20029;-59
2023/08/07 10:00:53;;;;;;;2.35;2.15;;;13.30;99.90;;;;;;5018863;28;20034;-60
2023/08/07 10:03:21;;;;;;;2.20;2.00;;;13.20;99.90;;;;;;5018596;28;20833;-60
2023/08/07 10:05:47;;;;;;;3.83;2.00;;;13.10;99.90;;;;;;5020004;28;20030;-60
2023/08/07 10:08:12;;;;;;;2.00;1.55;;;13.10;99.90;;;;;;5023979;28;20022;-59
2023/08/07 10:10:39;;;;;;;2.72;1.33;;;13.10;99.90;;;;;;5018564;28;20037;-59
2023/08/07 10:13:05;;;;;;;1.70;1.50;;;13.00;99.90;;;;;;5017031;28;20516;-60
2023/08/07 10:15:34;;;;;;;1.90;1.30;;;13.00;99.90;;;;;;5019769;28;20398;-61
2023/08/07 10:18:00;;;;;;;1.70;1.42;;;13.00;99.90;;;;;;5019894;28;20029;-62
2023/08/07 10:20:28;;;;;;;2.45;1.48;;;13.10;99.90;;;;;;5018225;28;20449;-63
2023/08/07 10:23:00;;;;;;;3.67;1.50;;;13.10;99.90;;;;;;5019296;28;20030;-60
2023/08/07 10:25:28;;;;;;;1.83;1.38;;;13.20;99.90;;;;;;5019101;28;20568;-62
2023/08/07 10:27:55;;;;;;;2.55;1.50;;;13.30;99.90;;;;;;5016771;28;20026;-62
2023/08/07 10:30:23;;;;;;;1.85;1.20;;;13.30;99.90;;;;;;5018872;28;20042;-61
2023/08/07 10:32:50;;;;;;;1.67;1.30;;;13.30;99.90;;;;;;5021378;28;20109;-63
2023/08/07 10:35:25;;;;;;;1.63;1.20;;;13.20;99.90;;;;;;5019084;28;20017;-63
2023/08/07 10:37:53;;;;;;;2.30;1.30;;;13.10;99.90;;;;;;5018757;28;20124;-62
2023/08/07 10:40:21;;;;;;;2.28;1.30;;;13.10;99.90;;;;;;5019556;28;20029;-62
2023/08/07 10:42:55;;;;;;;3.38;1.73;;;13.10;99.90;;;;;;5014061;28;20037;-62
2023/08/07 10:45:22;;;;;;;2.05;1.38;;;13.20;99.90;;;;;;5020199;28;20080;-63
2023/08/07 10:48:03;;;;;;;2.65;1.13;;;13.20;99.90;;;;;;5017035;28;20929;-63
2023/08/07 10:50:32;;;;;;;2.27;1.37;;;13.20;99.90;;;;;;5021561;28;20053;-61
2023/08/07 10:53:04;;;;;;;2.80;1.63;;;13.30;99.90;;;;;;5018810;28;20559;-60
2023/08/07 10:55:46;;;;;;;1.98;1.45;;;13.40;99.90;;;;;;5019027;28;20041;-63
2023/08/07 10:58:25;;;;;;;2.03;1.30;;;13.50;99.90;;;;;;5019441;28;20030;-60
2023/08/07 11:00:52;;;;;;;4.60;1.88;;;13.60;99.90;;;;;;5022511;28;20029;-63
2023/08/07 11:03:27;;;;;;;1.85;1.40;;;13.70;99.90;;;;;;5017907;28;20521;-62
2023/08/07 11:05:52;;;;;;;1.60;1.25;;;13.80;99.90;;;;;;5020667;28;20037;-63
2023/08/07 11:08:23;;;;;;;1.65;1.52;;;13.90;99.90;;;;;;5023049;28;20025;-62
2023/08/07 11:10:51;;;;;;;2.67;1.42;;;13.80;99.90;;;;;;5019556;28;20045;-62
2023/08/07 11:13:16;;;;;;;1.90;1.10;;;13.70;99.90;;;;;;5020318;28;20385;-63
2023/08/07 11:15:42;;;;;;;1.67;1.10;;;13.70;99.90;;;;;;5004060;28;20034;-60
2023/08/07 11:18:07;;;;;;;2.83;1.40;;;13.60;99.90;;;;;;5017706;28;20037;-60
2023/08/07 11:20:34;;;;;;;1.83;1.40;;;13.60;99.90;;;;;;5019776;28;20050;-61
2023/08/07 11:23:00;;;;;;;2.53;1.40;;;13.60;99.90;;;;;;5019382;28;20067;-61
2023/08/07 11:25:26;;;;;;;2.15;1.48;;;13.60;99.90;;;;;;5020863;28;20034;-61
2023/08/07 11:27:53;;;;;;;1.55;1.20;;;13.60;99.90;;;;;;5017515;28;20458;-62
2023/08/07 11:30:19;;;;;;;1.48;1.30;;;13.60;99.90;;;;;;5016693;28;20074;-62
2023/08/07 11:32:44;;;;;;;1.92;1.35;;;13.60;99.90;;;;;;5016148;28;20060;-62
2023/08/07 11:35:11;;;;;;;0.98;0.85;;;13.50;99.90;;;;;;5019469;28;20017;-61
2023/08/07 11:37:44;;;;;;;1.30;1.20;;;13.50;99.90;;;;;;5016801;28;20037;-60
2023/08/07 11:40:11;;;;;;;1.35;0.95;;;13.50;99.90;;;;;;5017315;28;20117;-62
2023/08/07 11:42:37;;;;;;;1.98;1.10;;;13.40;99.90;;;;;;5017558;28;20813;-63
2023/08/07 11:45:04;;;;;;;1.65;0.90;;;13.40;99.90;;;;;;5016422;28;20044;-62
2023/08/07 11:47:30;;;;;;;2.42;0.90;;;13.40;99.90;;;;;;5020944;28;20033;-59
2023/08/07 11:49:55;;;;;;;1.13;0.85;;;13.40;99.90;;;;;;5019877;28;20030;-60
2023/08/07 11:52:23;;;;;;;1.20;1.10;;;13.40;99.90;;;;;;5016218;28;20108;-59
2023/08/07 11:54:49;;;;;;;6.30;1.40;;;13.40;99.90;;;;;;5019841;28;20041;-63
2023/08/07 11:57:21;;;;;;;0.93;0.82;;;13.40;99.90;;;;;;5019385;28;20451;-62
2023/08/07 11:59:50;;;;;;;2.83;1.00;;;13.40;99.90;;;;;;5022148;28;20390;-61
2023/08/07 12:02:16;;;;;;;3.22;0.90;;;13.40;99.90;;;;;;5016417;28;20109;-61
2023/08/07 12:04:42;;;;;;;1.40;0.95;;;13.40;99.90;;;;;;5018722;28;20168;-60
2023/08/07 12:07:10;;;;;;;1.73;1.33;;;13.40;99.90;;;;;;5018265;28;20034;-62
2023/08/07 12:09:36;;;;;;;1.25;1.00;;;13.40;99.90;;;;;;5021476;28;20037;-62
2023/08/07 12:12:03;;;;;;;1.83;0.98;;;13.40;99.90;;;;;;5018699;28;20040;-59
2023/08/07 12:14:32;;;;;;;1.35;0.88;;;13.40;99.90;;;;;;5019022;28;20127;-60
2023/08/07 12:16:57;;;;;;;1.88;0.88;;;13.40;99.90;;;;;;5016825;28;20036;-61
2023/08/07 12:19:23;;;;;;;1.27;1.08;;;13.50;99.90;;;;;;5016077;28;20410;-62
2023/08/07 12:21:48;;;;;;;1.05;0.70;;;13.40;99.90;;;;;;5018966;28;20065;-61
2023/08/07 12:24:14;;;;;;;1.75;0.90;;;13.50;99.90;;;;;;5019346;28;20034;-62
2023/08/07 12:26:40;;;;;;;6.78;1.73;;;13.50;99.90;;;;;;5019466;28;20477;-59
2023/08/07 12:29:05;;;;;;;1.42;0.88;;;13.40;99.90;;;;;;5014839;28;20053;-61
2023/08/07 12:31:31;;;;;;;0.95;0.80;;;13.40;99.90;;;;;;5014266;28;20049;-62
2023/08/07 12:33:57;;;;;;;1.98;0.77;;;13.50;99.90;;;;;;5012015;28;20026;-60
2023/08/07 12:36:22;;;;;;;1.33;0.82;;;13.40;99.90;;;;;;5017205;28;20049;-60
2023/08/07 12:38:48;;;;;;;1.05;0.90;;;13.50;99.90;;;;;;5018239;28;20029;-63
2023/08/07 12:41:14;;;;;;;1.58;0.77;;;13.50;99.90;;;;;;5017180;28;20018;-62
2023/08/07 12:43:40;;;;;;;1.17;0.65;;;13.60;99.90;;;;;;5016010;28;20044;-60